Time,TemperatureF,DewpointF,PressureIn,WindDirection,WindDirectionDegrees,WindSpeedMPH,WindSpeedGustMPH,Humidity,HourlyPrecipIn,Conditions,Clouds,dailyrainin,SoftwareType,DateUTC
2013-03-28 00:02:00,36.0,25.0,-100.00,WSW,244,9.0,12.0,64,0.00,,,-99.99,,2013-03-28 06:02:00,
2013-03-28 00:12:00,36.0,25.0,-100.00,WSW,243,9.0,12.0,64,0.00,,,-99.99,,2013-03-28 06:12:00,
2013-03-28 00:22:00,36.0,26.0,-100.00,WSW,241,7.0,9.0,64,0.00,,,-99.99,,2013-03-28 06:22:00,
2013-03-28 00:32:00,37.0,25.0,-100.00,WSW,244,7.0,14.0,61,0.00,,,-99.99,,2013-03-28 06:32:00,
2013-03-28 00:42:00,37.0,25.0,-100.00,WSW,250,11.0,14.0,60,0.00,,,-99.99,,2013-03-28 06:42:00,
2013-03-28 00:52:00,37.0,25.0,-100.00,WSW,251,11.0,14.0,60,0.00,,,-99.99,,2013-03-28 06:52:00,
2013-03-28 01:02:00,38.0,24.0,-100.00,WSW,247,12.0,16.0,57,0.00,,,-99.99,,2013-03-28 07:02:00,
2013-03-28 01:12:00,37.0,24.0,-100.00,WSW,248,12.0,16.0,58,0.00,,,-99.99,,2013-03-28 07:12:00,
2013-03-28 01:22:00,37.0,24.0,-100.00,West,267,11.0,16.0,57,0.00,,,-99.99,,2013-03-28 07:22:00,
2013-03-28 01:32:00,35.0,24.0,-100.00,NW,311,9.0,12.0,64,0.00,,,-99.99,,2013-03-28 07:32:00,
2013-03-28 01:42:00,35.0,24.0,-100.00,WNW,302,8.0,11.0,63,0.00,,,-99.99,,2013-03-28 07:42:00,
2013-03-28 01:52:00,36.0,24.0,-100.00,WNW,291,7.0,14.0,59,0.00,,,-99.99,,2013-03-28 07:52:00,
2013-03-28 02:02:00,37.0,23.0,-100.00,West,265,9.0,15.0,58,0.00,,,-99.99,,2013-03-28 08:02:00,
2013-03-28 02:12:00,36.0,23.0,-100.00,West,263,9.0,12.0,59,0.00,,,-99.99,,2013-03-28 08:12:00,
2013-03-28 02:21:00,36.0,22.0,-100.00,West,268,11.0,14.0,57,0.00,,,-99.99,,2013-03-28 08:21:00,
2013-03-28 02:32:00,36.0,22.0,-100.00,West,274,9.0,14.0,57,0.00,,,-99.99,,2013-03-28 08:32:00,
2013-03-28 02:42:00,35.0,22.0,-100.00,West,274,7.0,10.0,61,0.00,,,-99.99,,2013-03-28 08:42:00,
2013-03-28 02:52:00,35.0,22.0,-100.00,West,265,8.0,12.0,58,0.00,,,-99.99,,2013-03-28 08:52:00,
2013-03-28 03:02:00,35.0,22.0,-100.00,West,264,9.0,12.0,58,0.00,,,-99.99,,2013-03-28 09:02:00,
2013-03-28 03:12:00,35.0,22.0,-100.00,West,264,8.0,12.0,58,0.00,,,-99.99,,2013-03-28 09:12:00,
2013-03-28 03:22:00,35.0,22.0,-100.00,West,263,9.0,14.0,57,0.00,,,-99.99,,2013-03-28 09:22:00,
2013-03-28 03:32:00,35.0,22.0,-100.00,West,270,7.0,12.0,57,0.00,,,-99.99,,2013-03-28 09:32:00,
2013-03-28 03:42:00,35.0,22.0,-100.00,West,267,9.0,13.0,57,0.00,,,-99.99,,2013-03-28 09:42:00,
2013-03-28 03:52:00,35.0,21.0,-100.00,WSW,257,11.0,14.0,57,0.00,,,-99.99,,2013-03-28 09:52:00,
2013-03-28 04:03:00,35.0,21.0,-100.00,WSW,257,10.0,14.0,56,0.00,,,-99.99,,2013-03-28 10:03:00,
2013-03-28 04:12:00,35.0,21.0,-100.00,WSW,256,10.0,13.0,57,0.00,,,-99.99,,2013-03-28 10:12:00,
2013-03-28 04:22:00,34.0,21.0,-100.00,WSW,257,10.0,12.0,57,0.00,,,-99.99,,2013-03-28 10:22:00,
2013-03-28 04:33:00,35.0,21.0,-100.00,WSW,251,11.0,14.0,56,0.00,,,-99.99,,2013-03-28 10:33:00,
2013-03-28 04:42:00,35.0,21.0,-100.00,WSW,248,12.0,16.0,55,0.00,,,-99.99,,2013-03-28 10:42:00,
2013-03-28 04:52:00,35.0,20.0,-100.00,WSW,251,12.0,16.0,56,0.00,,,-99.99,,2013-03-28 10:52:00,
2013-03-28 05:02:00,35.0,21.0,-100.00,WSW,254,12.0,14.0,56,0.00,,,-99.99,,2013-03-28 11:02:00,
2013-03-28 05:12:00,35.0,20.0,-100.00,WSW,251,12.0,15.0,56,0.00,,,-99.99,,2013-03-28 11:12:00,
2013-03-28 05:22:00,35.0,20.0,-100.00,WSW,248,14.0,18.0,56,0.00,,,-99.99,,2013-03-28 11:22:00,
2013-03-28 05:32:00,35.0,20.0,-100.00,WSW,248,14.0,19.0,55,0.00,,,-99.99,,2013-03-28 11:32:00,
2013-03-28 05:42:00,35.0,20.0,-100.00,WSW,253,14.0,19.0,55,0.00,,,-99.99,,2013-03-28 11:42:00,
2013-03-28 05:52:00,35.0,20.0,-100.00,WSW,251,15.0,18.0,54,0.00,,,-99.99,,2013-03-28 11:52:00,
2013-03-28 06:02:00,35.0,20.0,-100.00,WSW,248,14.0,17.0,55,0.00,,,-99.99,,2013-03-28 12:02:00,
2013-03-28 06:12:00,35.0,20.0,-100.00,WSW,248,14.0,17.0,54,0.00,,,-99.99,,2013-03-28 12:12:00,
2013-03-28 06:22:00,35.0,20.0,-100.00,WSW,247,14.0,19.0,54,0.00,,,-99.99,,2013-03-28 12:22:00,
2013-03-28 06:32:00,35.0,20.0,-100.00,WSW,250,14.0,17.0,54,0.00,,,-99.99,,2013-03-28 12:32:00,
2013-03-28 06:42:00,35.0,20.0,-100.00,WSW,248,15.0,19.0,53,0.00,,,-99.99,,2013-03-28 12:42:00,
2013-03-28 06:52:00,36.0,20.0,-100.00,WSW,247,16.0,20.0,53,0.00,,,-99.99,,2013-03-28 12:52:00,
2013-03-28 07:02:00,35.0,20.0,-100.00,WSW,250,15.0,20.0,53,0.00,,,-99.99,,2013-03-28 13:02:00,
2013-03-28 07:12:00,35.0,20.0,-100.00,WSW,251,15.0,20.0,53,0.00,,,-99.99,,2013-03-28 13:12:00,
2013-03-28 07:22:00,35.0,20.0,-100.00,WSW,253,14.0,19.0,54,0.00,,,-99.99,,2013-03-28 13:22:00,
2013-03-28 07:32:00,35.0,20.0,-100.00,WSW,250,14.0,18.0,54,0.00,,,-99.99,,2013-03-28 13:32:00,
2013-03-28 07:52:00,35.0,20.0,-100.00,WSW,253,12.0,17.0,53,0.00,,,-99.99,,2013-03-28 13:52:00,
2013-03-28 08:02:00,36.0,20.0,-100.00,WSW,256,12.0,19.0,51,0.00,,,-99.99,,2013-03-28 14:02:00,
2013-03-28 08:12:00,37.0,20.0,-100.00,WSW,258,13.0,19.0,49,0.00,,,-99.99,,2013-03-28 14:12:00,
2013-03-28 08:22:00,38.0,20.0,-100.00,West,265,13.0,18.0,48,0.00,,,-99.99,,2013-03-28 14:22:00,
2013-03-28 08:32:00,38.0,20.0,-100.00,West,264,13.0,17.0,48,0.00,,,-99.99,,2013-03-28 14:32:00,
2013-03-28 08:42:00,39.0,20.0,-100.00,West,271,12.0,18.0,48,0.00,,,-99.99,,2013-03-28 14:42:00,
2013-03-28 08:51:00,39.0,21.0,-100.00,West,274,10.0,14.0,47,0.00,,,-99.99,,2013-03-28 14:51:00,
2013-03-28 09:02:00,40.0,21.0,-100.00,West,280,7.0,11.0,46,0.00,,,-99.99,,2013-03-28 15:02:00,
2013-03-28 09:12:00,40.0,21.0,-100.00,West,281,7.0,11.0,46,0.00,,,-99.99,,2013-03-28 15:12:00,
2013-03-28 09:21:00,41.0,21.0,-100.00,WNW,289,7.0,12.0,44,0.00,,,-99.99,,2013-03-28 15:21:00,
2013-03-28 09:33:00,41.0,19.0,-100.00,WNW,292,11.0,17.0,40,0.00,,,-99.99,,2013-03-28 15:33:00,
2013-03-28 09:43:00,42.0,20.0,-100.00,WNW,292,12.0,16.0,42,0.00,,,-99.99,,2013-03-28 15:43:00,
2013-03-28 09:52:00,42.0,21.0,-100.00,WNW,298,12.0,17.0,42,0.00,,,-99.99,,2013-03-28 15:52:00,
2013-03-28 10:02:00,42.0,21.0,-100.00,WNW,302,13.0,17.0,42,0.00,,,-99.99,,2013-03-28 16:02:00,
2013-03-28 10:12:00,42.0,20.0,-100.00,WNW,302,13.0,17.0,41,0.00,,,-99.99,,2013-03-28 16:12:00,
2013-03-28 10:23:00,42.0,21.0,-100.00,NW,306,13.0,17.0,43,0.00,,,-99.99,,2013-03-28 16:23:00,
2013-03-28 10:32:00,42.0,20.0,-100.00,NW,311,13.0,17.0,41,0.00,,,-99.99,,2013-03-28 16:32:00,
2013-03-28 10:42:00,42.0,20.0,-100.00,NW,304,16.0,21.0,41,0.00,,,-99.99,,2013-03-28 16:42:00,
2013-03-28 10:52:00,43.0,22.0,-100.00,NW,305,14.0,17.0,42,0.00,,,-99.99,,2013-03-28 16:52:00,
2013-03-28 11:02:00,44.0,22.0,-100.00,WNW,299,13.0,18.0,42,0.00,,,-99.99,,2013-03-28 17:02:00,
2013-03-28 11:12:00,43.0,22.0,-100.00,WNW,298,12.0,18.0,43,0.00,,,-99.99,,2013-03-28 17:12:00,
2013-03-28 11:22:00,44.0,22.0,-100.00,WNW,301,13.0,19.0,42,0.00,,,-99.99,,2013-03-28 17:22:00,
2013-03-28 11:32:00,44.0,22.0,-100.00,NW,305,13.0,18.0,40,0.00,,,-99.99,,2013-03-28 17:32:00,
2013-03-28 11:42:00,44.0,23.0,-100.00,WNW,298,12.0,17.0,43,0.00,,,-99.99,,2013-03-28 17:42:00,
2013-03-28 11:52:00,45.0,23.0,-100.00,WNW,298,11.0,17.0,42,0.00,,,-99.99,,2013-03-28 17:52:00,
2013-03-28 12:02:00,45.0,21.0,-100.00,WNW,295,10.0,15.0,38,0.00,,,-99.99,,2013-03-28 18:02:00,
2013-03-28 12:12:00,45.0,22.0,-100.00,WNW,288,11.0,19.0,41,0.00,,,-99.99,,2013-03-28 18:12:00,
2013-03-28 12:22:00,45.0,22.0,-100.00,WNW,287,11.0,17.0,40,0.00,,,-99.99,,2013-03-28 18:22:00,
2013-03-28 12:32:00,45.0,22.0,-100.00,WNW,294,11.0,16.0,40,0.00,,,-99.99,,2013-03-28 18:32:00,
2013-03-28 12:42:00,45.0,23.0,-100.00,WNW,284,11.0,17.0,41,0.00,,,-99.99,,2013-03-28 18:42:00,
2013-03-28 12:52:00,46.0,24.0,-100.00,WNW,287,11.0,21.0,41,0.00,,,-99.99,,2013-03-28 18:52:00,
2013-03-28 13:02:00,45.0,23.0,-100.00,WNW,295,12.0,18.0,41,0.00,,,-99.99,,2013-03-28 19:02:00,
2013-03-28 13:12:00,46.0,23.0,-100.00,WNW,295,12.0,19.0,41,0.00,,,-99.99,,2013-03-28 19:12:00,
2013-03-28 13:22:00,46.0,24.0,-100.00,WNW,294,12.0,18.0,42,0.00,,,-99.99,,2013-03-28 19:22:00,
2013-03-28 13:32:00,46.0,24.0,-100.00,WNW,289,12.0,17.0,41,0.00,,,-99.99,,2013-03-28 19:32:00,
2013-03-28 13:42:00,46.0,22.0,-100.00,WNW,291,11.0,16.0,38,0.00,,,-99.99,,2013-03-28 19:42:00,
2013-03-28 13:52:00,47.0,23.0,-100.00,West,278,11.0,16.0,39,0.00,,,-99.99,,2013-03-28 19:52:00,
2013-03-28 14:03:00,47.0,22.0,-100.00,WNW,289,12.0,18.0,38,0.00,,,-99.99,,2013-03-28 20:03:00,
2013-03-28 14:12:00,47.0,21.0,-100.00,WNW,285,12.0,19.0,35,0.00,,,-99.99,,2013-03-28 20:12:00,
2013-03-28 14:22:00,47.0,24.0,-100.00,WNW,285,12.0,18.0,40,0.00,,,-99.99,,2013-03-28 20:22:00,
2013-03-28 14:32:00,48.0,22.0,-100.00,WNW,292,12.0,20.0,36,0.00,,,-99.99,,2013-03-28 20:32:00,
2013-03-28 14:42:00,47.0,21.0,-100.00,WNW,285,13.0,19.0,34,0.00,,,-99.99,,2013-03-28 20:42:00,
2013-03-28 14:52:00,48.0,20.0,-100.00,WNW,285,12.0,19.0,32,0.00,,,-99.99,,2013-03-28 20:52:00,
2013-03-28 15:02:00,49.0,21.0,-100.00,WNW,292,13.0,24.0,32,0.00,,,-99.99,,2013-03-28 21:02:00,
2013-03-28 15:12:00,48.0,19.0,-100.00,WNW,294,14.0,24.0,32,0.00,,,-99.99,,2013-03-28 21:12:00,
2013-03-28 15:22:00,48.0,21.0,-100.00,West,277,12.0,20.0,34,0.00,,,-99.99,,2013-03-28 21:22:00,
2013-03-28 15:32:00,49.0,20.0,-100.00,WNW,288,12.0,18.0,32,0.00,,,-99.99,,2013-03-28 21:32:00,
2013-03-28 15:42:00,49.0,21.0,-100.00,West,281,12.0,17.0,33,0.00,,,-99.99,,2013-03-28 21:42:00,
2013-03-28 15:53:00,48.0,21.0,-100.00,West,270,12.0,17.0,34,0.00,,,-99.99,,2013-03-28 21:53:00,
2013-03-28 16:02:00,49.0,21.0,-100.00,WNW,285,11.0,17.0,32,0.00,,,-99.99,,2013-03-28 22:02:00,
2013-03-28 16:12:00,49.0,19.0,-100.00,WNW,287,11.0,17.0,30,0.00,,,-99.99,,2013-03-28 22:12:00,
2013-03-28 16:22:00,49.0,21.0,-100.00,WNW,291,11.0,16.0,33,0.00,,,-99.99,,2013-03-28 22:22:00,
2013-03-28 16:32:00,48.0,19.0,-100.00,WNW,291,11.0,16.0,31,0.00,,,-99.99,,2013-03-28 22:32:00,
2013-03-28 16:42:00,49.0,19.0,-100.00,WNW,284,10.0,15.0,30,0.00,,,-99.99,,2013-03-28 22:42:00,
2013-03-28 16:52:00,49.0,20.0,-100.00,West,280,9.0,12.0,32,0.00,,,-99.99,,2013-03-28 22:52:00,
2013-03-28 17:02:00,48.0,19.0,-100.00,WNW,299,9.0,14.0,31,0.00,,,-99.99,,2013-03-28 23:02:00,
2013-03-28 17:12:00,49.0,20.0,-100.00,WNW,302,8.0,12.0,31,0.00,,,-99.99,,2013-03-28 23:12:00,
2013-03-28 17:22:00,49.0,20.0,-100.00,WNW,289,9.0,16.0,32,0.00,,,-99.99,,2013-03-28 23:22:00,
2013-03-28 17:32:00,48.0,20.0,-100.00,WNW,284,9.0,12.0,32,0.00,,,-99.99,,2013-03-28 23:32:00,
2013-03-28 17:42:00,48.0,20.0,-100.00,WNW,291,9.0,12.0,32,0.00,,,-99.99,,2013-03-28 23:42:00,
2013-03-28 17:52:00,49.0,21.0,-100.00,WNW,287,9.0,14.0,33,0.00,,,-99.99,,2013-03-28 23:52:00,
2013-03-28 18:02:00,47.0,21.0,-100.00,West,280,9.0,16.0,35,0.00,,,-99.99,,2013-03-29 00:02:00,
2013-03-28 18:12:00,46.0,22.0,-100.00,WNW,289,12.0,16.0,38,0.00,,,-99.99,,2013-03-29 00:12:00,
2013-03-28 18:22:00,46.0,19.0,-100.00,WNW,285,12.0,18.0,33,0.00,,,-99.99,,2013-03-29 00:22:00,
2013-03-28 18:32:00,45.0,24.0,-100.00,West,277,12.0,19.0,42,0.00,,,-99.99,,2013-03-29 00:32:00,
2013-03-28 18:42:00,44.0,24.0,-100.00,West,267,11.0,17.0,45,0.00,,,-99.99,,2013-03-29 00:42:00,
2013-03-28 18:52:00,46.0,20.0,-100.00,West,280,11.0,19.0,34,0.00,,,-99.99,,2013-03-29 00:52:00,
2013-03-28 19:02:00,46.0,21.0,-100.00,West,280,9.0,13.0,37,0.00,,,-99.99,,2013-03-29 01:02:00,
2013-03-28 19:12:00,45.0,22.0,-100.00,West,263,7.0,12.0,39,0.00,,,-99.99,,2013-03-29 01:12:00,
2013-03-28 19:22:00,43.0,24.0,-100.00,WSW,239,6.0,7.0,47,0.00,,,-99.99,,2013-03-29 01:22:00,
2013-03-28 19:32:00,42.0,24.0,-100.00,SW,232,6.0,8.0,47,0.00,,,-99.99,,2013-03-29 01:32:00,
2013-03-28 19:42:00,43.0,23.0,-100.00,SW,232,7.0,10.0,45,0.00,,,-99.99,,2013-03-29 01:42:00,
2013-03-28 19:52:00,42.0,24.0,-100.00,SW,233,7.0,10.0,47,0.00,,,-99.99,,2013-03-29 01:52:00,
2013-03-28 20:02:00,42.0,23.0,-100.00,SW,236,8.0,10.0,48,0.00,,,-99.99,,2013-03-29 02:02:00,
2013-03-28 20:12:00,41.0,24.0,-100.00,SW,234,7.0,10.0,49,0.00,,,-99.99,,2013-03-29 02:12:00,
2013-03-28 20:22:00,42.0,23.0,-100.00,SW,227,9.0,11.0,46,0.00,,,-99.99,,2013-03-29 02:22:00,
2013-03-28 20:32:00,42.0,23.0,-100.00,SW,227,9.0,11.0,47,0.00,,,-99.99,,2013-03-29 02:32:00,
2013-03-28 20:42:00,42.0,23.0,-100.00,SW,219,9.0,11.0,47,0.00,,,-99.99,,2013-03-29 02:42:00,
2013-03-28 20:52:00,42.0,23.0,-100.00,SW,216,12.0,14.0,46,0.00,,,-99.99,,2013-03-29 02:52:00,
2013-03-28 21:02:00,42.0,23.0,-100.00,SW,215,12.0,15.0,46,0.00,,,-99.99,,2013-03-29 03:02:00,
2013-03-28 21:12:00,42.0,23.0,-100.00,SSW,213,12.0,14.0,46,0.00,,,-99.99,,2013-03-29 03:12:00,
2013-03-28 21:22:00,42.0,23.0,-100.00,SSW,213,15.0,18.0,47,0.00,,,-99.99,,2013-03-29 03:22:00,
2013-03-28 21:32:00,41.0,23.0,-100.00,SSW,213,13.0,15.0,47,0.00,,,-99.99,,2013-03-29 03:32:00,
2013-03-28 21:42:00,41.0,23.0,-100.00,SW,217,12.0,14.0,49,0.00,,,-99.99,,2013-03-29 03:42:00,
2013-03-28 21:52:00,42.0,23.0,-100.00,SSW,213,12.0,14.0,47,0.00,,,-99.99,,2013-03-29 03:52:00,
2013-03-28 22:03:00,42.0,23.0,-100.00,SW,216,13.0,16.0,48,0.00,,,-99.99,,2013-03-29 04:03:00,
2013-03-28 22:12:00,41.0,24.0,-100.00,SW,224,9.0,12.0,50,0.00,,,-99.99,,2013-03-29 04:12:00,
2013-03-28 22:22:00,41.0,24.0,-100.00,SW,224,9.0,12.0,51,0.00,,,-99.99,,2013-03-29 04:22:00,
2013-03-28 22:33:00,40.0,25.0,-100.00,SW,229,8.0,10.0,53,0.00,,,-99.99,,2013-03-29 04:33:00,
2013-03-28 22:42:00,41.0,24.0,-100.00,SW,226,7.0,10.0,52,0.00,,,-99.99,,2013-03-29 04:42:00,
2013-03-28 22:52:00,41.0,25.0,-100.00,SW,224,9.0,11.0,52,0.00,,,-99.99,,2013-03-29 04:52:00,
2013-03-28 23:03:00,41.0,24.0,-100.00,SW,220,11.0,12.0,50,0.00,,,-99.99,,2013-03-29 05:03:00,
2013-03-28 23:12:00,41.0,24.0,-100.00,SW,220,10.0,12.0,51,0.00,,,-99.99,,2013-03-29 05:12:00,
2013-03-28 23:23:00,40.0,24.0,-100.00,SW,234,8.0,12.0,52,0.00,,,-99.99,,2013-03-29 05:23:00,
2013-03-28 23:32:00,41.0,24.0,-100.00,SW,230,12.0,14.0,50,0.00,,,-99.99,,2013-03-29 05:32:00,
2013-03-28 23:43:00,41.0,24.0,-100.00,SW,227,11.0,14.0,51,0.00,,,-99.99,,2013-03-29 05:43:00,
2013-03-28 23:52:00,41.0,24.0,-100.00,SW,227,11.0,13.0,52,0.00,,,-99.99,,2013-03-29 05:52:00,